M/T Vemaoil Xi — 9HWD7 — position and weather

sailwx.info

Track history (hours):
 
Tides and Currents Weather Stations Pressure Air Temp Water Temp Dewpoint Dewpoint Depression Visibility Wind Speed Wind Dir Waves Ship Positions

M/T Vemaoil Xi

Last reported at 2016-Aug-24 17:33 UTC. Time now 2016-Aug-24 17:55 UTC.
Position N 35°57' E 014°19'.

Length 105 m; draft 6 m.

Type: Tanker. MMSI: 215631000.

Date/timePositionNaut miles runAvg speedWind from/ knotsBaromVisibWave heightAir tempDewpointWater temp
2016-Aug-24 17:33N 35°57' E 014°19'0 0.0
2016-Aug-24 16:33N 35°57' E 014°19'0 0.1
2016-Aug-24 15:33N 35°57' E 014°19'0 0.0
2016-Aug-24 14:33N 35°57' E 014°19'0 0.0
2016-Aug-24 13:30N 35°57' E 014°20'0 0.0
2016-Aug-24 12:33N 35°57' E 014°20'0 0.0
2016-Aug-24 11:33N 35°57' E 014°19'0 0.0
2016-Aug-24 10:33N 35°57' E 014°20'0 0.3
2016-Aug-24 09:30N 35°57' E 014°20'0 0.0
2016-Aug-24 08:33N 35°57' E 014°20'0 0.0
2016-Aug-24 07:33N 35°57' E 014°20'0 0.0
2016-Aug-24 06:33N 35°57' E 014°20'0 0.0
2016-Aug-24 04:33N 35°57' E 014°20'0 0.0
2016-Aug-24 03:33N 35°57' E 014°20'0 0.0
2016-Aug-24 02:33N 35°57' E 014°20'0 0.0
2016-Aug-24 01:33N 35°57' E 014°20'0 0.1
2016-Aug-24 00:33N 35°57' E 014°20'6 5.7
2016-Aug-23 23:33N 35°51' E 014°19'7 6.5
2016-Aug-23 22:33N 35°46' E 014°24'8 6.6
2016-Aug-23 21:24N 35°47' E 014°33'5 6.4
2016-Aug-23 20:33N 35°49' E 014°39'7 6.4
2016-Aug-23 19:30N 35°53' E 014°46'0 0.1
2016-Aug-23 15:11N 35°52' E 014°46'0 0.0
2016-Aug-23 14:20N 35°52' E 014°46'0 0.4
2016-Aug-23 13:33N 35°52' E 014°47'3 0.5
2016-Aug-23 07:14N 35°55' E 014°48'4 0.5
2016-Aug-22 23:10N 35°52' E 014°45'4 5.9
2016-Aug-22 22:29N 35°51' E 014°40'5 0.9
2016-Aug-22 17:20N 35°49' E 014°35'4 4.8
2016-Aug-22 16:33N 35°50' E 014°40'6 5.8
2016-Aug-22 15:33N 35°52' E 014°46'1 1.3
2016-Aug-22 14:33N 35°52' E 014°48'0 0.0
2016-Aug-22 13:24N 35°52' E 014°48'0 0.0
2016-Aug-22 12:33N 35°52' E 014°48'2 1.6
2016-Aug-22 11:31N 35°52' E 014°46'0 0.3
2016-Aug-22 10:34N 35°52' E 014°45'6 5.8
2016-Aug-22 09:34N 35°51' E 014°39'5 4.9
2016-Aug-22 08:33N 35°52' E 014°44'0 0.2
2016-Aug-22 07:33N 35°52' E 014°45'0 0.0
2016-Aug-22 06:33N 35°52' E 014°45'0 0.0
2016-Aug-22 05:33N 35°52' E 014°45'0 0.0
2016-Aug-22 04:27N 35°52' E 014°45'0 0.0
2016-Aug-22 03:33N 35°52' E 014°45'0 0.0
2016-Aug-22 02:33N 35°52' E 014°45'0 0.0
2016-Aug-22 01:33N 35°52' E 014°45'0 0.0
2016-Aug-22 00:33N 35°53' E 014°45'0 0.0
2016-Aug-21 23:33N 35°53' E 014°45'0 0.0
2016-Aug-21 22:33N 35°53' E 014°45'0 0.0
2016-Aug-21 21:33N 35°53' E 014°45'0 0.0
2016-Aug-21 20:34N 35°53' E 014°45'0 0.0
2016-Aug-21 19:33N 35°53' E 014°45'2 1.9
2016-Aug-21 18:33N 35°52' E 014°47'0 0.0
2016-Aug-21 17:33N 35°52' E 014°47'0 0.0
2016-Aug-21 16:34N 35°52' E 014°47'1 0.5
2016-Aug-21 15:34N 35°52' E 014°46'5 4.8
2016-Aug-21 14:34N 35°51' E 014°41'4 3.8
2016-Aug-21 13:28N 35°50' E 014°36'0 0.0
2016-Aug-21 12:31N 35°50' E 014°36'0 0.1
2016-Aug-21 11:32N 35°50' E 014°36'3 2.9
2016-Aug-21 10:33N 35°49' E 014°32'0 0.0
2016-Aug-21 09:27N 35°49' E 014°32'0 0.0
2016-Aug-21 08:27N 35°49' E 014°32'0 0.0
2016-Aug-21 07:24N 35°49' E 014°32'0 0.0
2016-Aug-21 06:30N 35°49' E 014°32'0 0.0
2016-Aug-21 05:33N 35°49' E 014°32'0 0.2
2016-Aug-21 04:33N 35°49' E 014°32'1 0.1
2016-Aug-20 19:32N 35°49' E 014°33'0 0.0
2016-Aug-20 18:20N 35°49' E 014°33'0 0.0
2016-Aug-20 17:08N 35°49' E 014°33'0 0.0
2016-Aug-20 16:29N 35°49' E 014°33'0 0.0
2016-Aug-20 14:32N 35°49' E 014°33'0 0.1
2016-Aug-20 12:32N 35°49' E 014°33'2 2.4
2016-Aug-20 11:29N 35°50' E 014°36'0 0.0
2016-Aug-20 10:32N 35°50' E 014°36'0 0.0
2016-Aug-20 09:32N 35°50' E 014°36'0 0.0
2016-Aug-20 08:32N 35°50' E 014°36'0 0.0
2016-Aug-20 07:32N 35°50' E 014°35'0 0.0
2016-Aug-20 06:32N 35°50' E 014°35'0 0.0
2016-Aug-20 05:32N 35°50' E 014°35'0 0.0
2016-Aug-20 04:26N 35°50' E 014°35'0 0.0
2016-Aug-20 03:29N 35°50' E 014°36'0 0.0
2016-Aug-20 02:32N 35°50' E 014°36'0 0.1
2016-Aug-20 01:32N 35°50' E 014°36'0 0.1
2016-Aug-20 00:32N 35°50' E 014°36'0 0.0
2016-Aug-19 23:32N 35°50' E 014°36'0 0.1
2016-Aug-19 22:29N 35°50' E 014°35'0 0.0
2016-Aug-19 21:08N 35°50' E 014°35'0 0.0
2016-Aug-19 20:26N 35°50' E 014°35'0 0.0
2016-Aug-19 19:32N 35°50' E 014°35'0 0.0
2016-Aug-19 18:26N 35°50' E 014°35'0 0.1
2016-Aug-19 17:32N 35°50' E 014°36'0 0.0
2016-Aug-19 16:29N 35°50' E 014°36'0 0.0
2016-Aug-19 15:32N 35°50' E 014°36'0 0.0
2016-Aug-19 14:32N 35°50' E 014°36'0 0.1
2016-Aug-19 13:26N 35°50' E 014°35'0 0.1
2016-Aug-19 12:32N 35°50' E 014°36'0 0.1
2016-Aug-19 11:26N 35°50' E 014°36'0 0.1
2016-Aug-19 10:32N 35°50' E 014°35'0 0.0
2016-Aug-19 09:23N 35°50' E 014°35'0 0.1
2016-Aug-19 08:32N 35°50' E 014°35'0 0.0
2016-Aug-19 07:14N 35°50' E 014°35'0 0.0
2016-Aug-19 06:32N 35°50' E 014°35'0 0.0
2016-Aug-19 05:29N 35°50' E 014°35'0 0.0
2016-Aug-19 04:32N 35°50' E 014°35'1 0.1
2016-Aug-19 00:33N 35°50' E 014°36'0 0.0
2016-Aug-18 20:27N 35°50' E 014°36'0 0.0
2016-Aug-18 19:27N 35°50' E 014°36'0 0.0
2016-Aug-18 18:33N 35°50' E 014°36'0 0.0
2016-Aug-18 17:33N 35°50' E 014°36'0 0.0
2016-Aug-18 16:30N 35°50' E 014°36'2 2.4
2016-Aug-18 15:28N 35°51' E 014°39'1 0.8
2016-Aug-18 14:33N 35°51' E 014°38'6 6.1
2016-Aug-18 13:33N 35°54' E 014°31'1 0.6
2016-Aug-18 12:31N 35°53' E 014°31'1 0.2
2016-Aug-18 07:23N 35°54' E 014°31'5 6.4
2016-Aug-18 06:33N 35°55' E 014°38'6 6.0
2016-Aug-18 05:33N 35°55' E 014°45'2 0.5
2016-Aug-18 01:26N 35°55' E 014°48'0 0.0
2016-Aug-18 00:32N 35°55' E 014°48'5 4.2
2016-Aug-17 23:28N 35°52' E 014°43'6 6.7
2016-Aug-17 22:33N 35°49' E 014°36'1 1.1
2016-Aug-17 21:33N 35°49' E 014°35'0 0.0
2016-Aug-17 20:30N 35°49' E 014°35'0 0.0
2016-Aug-17 19:33N 35°49' E 014°35'0 0.0
2016-Aug-17 18:30N 35°49' E 014°35'0 0.0
2016-Aug-17 17:30N 35°49' E 014°35'0 0.0
2016-Aug-17 16:33N 35°49' E 014°35'0 0.0
2016-Aug-17 15:30N 35°49' E 014°35'0 0.0
2016-Aug-17 14:15N 35°49' E 014°35'0 0.0
2016-Aug-17 13:27N 35°49' E 014°35'0 0.0
2016-Aug-17 12:33N 35°49' E 014°35'0 0.0
2016-Aug-17 11:15N 35°49' E 014°35'0 0.1
2016-Aug-17 10:33N 35°49' E 014°35'0 0.0
2016-Aug-17 09:33N 35°49' E 014°35'0 0.0
2016-Aug-17 08:33N 35°49' E 014°35'0 0.1
2016-Aug-17 07:33N 35°49' E 014°35'1 0.6
2016-Aug-17 06:31N 35°49' E 014°36'0 0.0
2016-Aug-17 04:25N 35°49' E 014°36'0 0.0
2016-Aug-17 03:31N 35°49' E 014°36'0 0.0
2016-Aug-17 02:31N 35°49' E 014°36'0 0.0
2016-Aug-17 01:31N 35°49' E 014°36'0 0.0
2016-Aug-17 00:31N 35°49' E 014°36'0 0.0
2016-Aug-16 23:31N 35°49' E 014°36'1 0.5
2016-Aug-16 22:32N 35°50' E 014°36'0 0.1
2016-Aug-16 21:32N 35°50' E 014°36'0 0.0
2016-Aug-16 19:29N 35°50' E 014°36'0 0.0
2016-Aug-16 18:32N 35°50' E 014°36'0 0.0
2016-Aug-16 16:29N 35°50' E 014°36'1 0.8
2016-Aug-16 15:32N 35°49' E 014°35'0 0.0
2016-Aug-16 14:33N 35°49' E 014°35'0 0.0
2016-Aug-16 13:33N 35°49' E 014°35'0 0.0
2016-Aug-16 12:32N 35°49' E 014°35'0 0.0
2016-Aug-16 11:33N 35°49' E 014°35'0 0.0
2016-Aug-16 10:33N 35°49' E 014°35'0 0.0
2016-Aug-16 09:30N 35°49' E 014°35'0 0.0
2016-Aug-16 08:27N 35°49' E 014°35'0 0.0
2016-Aug-16 07:23N 35°49' E 014°35'0 0.0
2016-Aug-16 04:29N 35°49' E 014°35'0 0.0
2016-Aug-16 01:09N 35°49' E 014°35'0 0.0
2016-Aug-16 00:27N 35°49' E 014°35'0 0.0
2016-Aug-15 23:33N 35°49' E 014°35'0 0.0
2016-Aug-15 22:30N 35°49' E 014°35'0 0.0
2016-Aug-15 21:33N 35°49' E 014°35'0 0.0
2016-Aug-15 20:30N 35°49' E 014°35'0 0.1
2016-Aug-15 19:32N 35°49' E 014°35'0 0.0
2016-Aug-15 17:29N 35°49' E 014°35'0 0.0
2016-Aug-15 16:21N 35°49' E 014°35'0 0.1
2016-Aug-15 15:33N 35°49' E 014°35'0 0.0
2016-Aug-15 14:32N 35°49' E 014°35'0 0.0
2016-Aug-15 13:32N 35°49' E 014°35'  
Track history (hours):
 
Tides and Currents Weather Stations Pressure Air Temp Water Temp Dewpoint Dewpoint Depression Visibility Wind Speed Wind Dir Waves Ship Positions

M/T Vemaoil Xi

Last reported at 2016-Aug-24 17:33 UTC. Time now 2016-Aug-24 17:55 UTC.
Position N 35°57' E 014°19'.

Length 105 m; draft 6 m.

Type: Tanker. MMSI: 215631000.

Date/timePositionNaut miles runAvg speedWind from/ knotsBaromVisibWave heightAir tempDewpointWater temp
2016-Aug-24 17:33N 35°57' E 014°19'0 0.0
2016-Aug-24 16:33N 35°57' E 014°19'0 0.1
2016-Aug-24 15:33N 35°57' E 014°19'0 0.0
2016-Aug-24 14:33N 35°57' E 014°19'0 0.0
2016-Aug-24 13:30N 35°57' E 014°20'0 0.0
2016-Aug-24 12:33N 35°57' E 014°20'0 0.0
2016-Aug-24 11:33N 35°57' E 014°19'0 0.0
2016-Aug-24 10:33N 35°57' E 014°20'0 0.3
2016-Aug-24 09:30N 35°57' E 014°20'0 0.0
2016-Aug-24 08:33N 35°57' E 014°20'0 0.0
2016-Aug-24 07:33N 35°57' E 014°20'0 0.0
2016-Aug-24 06:33N 35°57' E 014°20'0 0.0
2016-Aug-24 04:33N 35°57' E 014°20'0 0.0
2016-Aug-24 03:33N 35°57' E 014°20'0 0.0
2016-Aug-24 02:33N 35°57' E 014°20'0 0.0
2016-Aug-24 01:33N 35°57' E 014°20'0 0.1
2016-Aug-24 00:33N 35°57' E 014°20'6 5.7
2016-Aug-23 23:33N 35°51' E 014°19'7 6.5
2016-Aug-23 22:33N 35°46' E 014°24'8 6.6
2016-Aug-23 21:24N 35°47' E 014°33'5 6.4
2016-Aug-23 20:33N 35°49' E 014°39'7 6.4
2016-Aug-23 19:30N 35°53' E 014°46'0 0.1
2016-Aug-23 15:11N 35°52' E 014°46'0 0.0
2016-Aug-23 14:20N 35°52' E 014°46'0 0.4
2016-Aug-23 13:33N 35°52' E 014°47'3 0.5
2016-Aug-23 07:14N 35°55' E 014°48'4 0.5
2016-Aug-22 23:10N 35°52' E 014°45'4 5.9
2016-Aug-22 22:29N 35°51' E 014°40'5 0.9
2016-Aug-22 17:20N 35°49' E 014°35'4 4.8
2016-Aug-22 16:33N 35°50' E 014°40'6 5.8
2016-Aug-22 15:33N 35°52' E 014°46'1 1.3
2016-Aug-22 14:33N 35°52' E 014°48'0 0.0
2016-Aug-22 13:24N 35°52' E 014°48'0 0.0
2016-Aug-22 12:33N 35°52' E 014°48'2 1.6
2016-Aug-22 11:31N 35°52' E 014°46'0 0.3
2016-Aug-22 10:34N 35°52' E 014°45'6 5.8
2016-Aug-22 09:34N 35°51' E 014°39'5 4.9
2016-Aug-22 08:33N 35°52' E 014°44'0 0.2
2016-Aug-22 07:33N 35°52' E 014°45'0 0.0
2016-Aug-22 06:33N 35°52' E 014°45'0 0.0
2016-Aug-22 05:33N 35°52' E 014°45'0 0.0
2016-Aug-22 04:27N 35°52' E 014°45'0 0.0
2016-Aug-22 03:33N 35°52' E 014°45'0 0.0
2016-Aug-22 02:33N 35°52' E 014°45'0 0.0
2016-Aug-22 01:33N 35°52' E 014°45'0 0.0
2016-Aug-22 00:33N 35°53' E 014°45'0 0.0
2016-Aug-21 23:33N 35°53' E 014°45'0 0.0
2016-Aug-21 22:33N 35°53' E 014°45'0 0.0
2016-Aug-21 21:33N 35°53' E 014°45'0 0.0
2016-Aug-21 20:34N 35°53' E 014°45'0 0.0
2016-Aug-21 19:33N 35°53' E 014°45'2 1.9
2016-Aug-21 18:33N 35°52' E 014°47'0 0.0
2016-Aug-21 17:33N 35°52' E 014°47'0 0.0
2016-Aug-21 16:34N 35°52' E 014°47'1 0.5
2016-Aug-21 15:34N 35°52' E 014°46'5 4.8
2016-Aug-21 14:34N 35°51' E 014°41'4 3.8
2016-Aug-21 13:28N 35°50' E 014°36'0 0.0
2016-Aug-21 12:31N 35°50' E 014°36'0 0.1
2016-Aug-21 11:32N 35°50' E 014°36'3 2.9
2016-Aug-21 10:33N 35°49' E 014°32'0 0.0
2016-Aug-21 09:27N 35°49' E 014°32'0 0.0
2016-Aug-21 08:27N 35°49' E 014°32'0 0.0
2016-Aug-21 07:24N 35°49' E 014°32'0 0.0
2016-Aug-21 06:30N 35°49' E 014°32'0 0.0
2016-Aug-21 05:33N 35°49' E 014°32'0 0.2
2016-Aug-21 04:33N 35°49' E 014°32'1 0.1
2016-Aug-20 19:32N 35°49' E 014°33'0 0.0
2016-Aug-20 18:20N 35°49' E 014°33'0 0.0
2016-Aug-20 17:08N 35°49' E 014°33'0 0.0
2016-Aug-20 16:29N 35°49' E 014°33'0 0.0
2016-Aug-20 14:32N 35°49' E 014°33'0 0.1
2016-Aug-20 12:32N 35°49' E 014°33'2 2.4
2016-Aug-20 11:29N 35°50' E 014°36'0 0.0
2016-Aug-20 10:32N 35°50' E 014°36'0 0.0
2016-Aug-20 09:32N 35°50' E 014°36'0 0.0
2016-Aug-20 08:32N 35°50' E 014°36'0 0.0
2016-Aug-20 07:32N 35°50' E 014°35'0 0.0
2016-Aug-20 06:32N 35°50' E 014°35'0 0.0
2016-Aug-20 05:32N 35°50' E 014°35'0 0.0
2016-Aug-20 04:26N 35°50' E 014°35'0 0.0
2016-Aug-20 03:29N 35°50' E 014°36'0 0.0
2016-Aug-20 02:32N 35°50' E 014°36'0 0.1
2016-Aug-20 01:32N 35°50' E 014°36'0 0.1
2016-Aug-20 00:32N 35°50' E 014°36'0 0.0
2016-Aug-19 23:32N 35°50' E 014°36'0 0.1
2016-Aug-19 22:29N 35°50' E 014°35'0 0.0
2016-Aug-19 21:08N 35°50' E 014°35'0 0.0
2016-Aug-19 20:26N 35°50' E 014°35'0 0.0
2016-Aug-19 19:32N 35°50' E 014°35'0 0.0
2016-Aug-19 18:26N 35°50' E 014°35'0 0.1
2016-Aug-19 17:32N 35°50' E 014°36'0 0.0
2016-Aug-19 16:29N 35°50' E 014°36'0 0.0
2016-Aug-19 15:32N 35°50' E 014°36'0 0.0
2016-Aug-19 14:32N 35°50' E 014°36'0 0.1
2016-Aug-19 13:26N 35°50' E 014°35'0 0.1
2016-Aug-19 12:32N 35°50' E 014°36'0 0.1
2016-Aug-19 11:26N 35°50' E 014°36'0 0.1
2016-Aug-19 10:32N 35°50' E 014°35'0 0.0
2016-Aug-19 09:23N 35°50' E 014°35'0 0.1
2016-Aug-19 08:32N 35°50' E 014°35'0 0.0
2016-Aug-19 07:14N 35°50' E 014°35'0 0.0
2016-Aug-19 06:32N 35°50' E 014°35'0 0.0
2016-Aug-19 05:29N 35°50' E 014°35'0 0.0
2016-Aug-19 04:32N 35°50' E 014°35'1 0.1
2016-Aug-19 00:33N 35°50' E 014°36'0 0.0
2016-Aug-18 20:27N 35°50' E 014°36'0 0.0
2016-Aug-18 19:27N 35°50' E 014°36'0 0.0
2016-Aug-18 18:33N 35°50' E 014°36'0 0.0
2016-Aug-18 17:33N 35°50' E 014°36'0 0.0
2016-Aug-18 16:30N 35°50' E 014°36'2 2.4
2016-Aug-18 15:28N 35°51' E 014°39'1 0.8
2016-Aug-18 14:33N 35°51' E 014°38'6 6.1
2016-Aug-18 13:33N 35°54' E 014°31'1 0.6
2016-Aug-18 12:31N 35°53' E 014°31'1 0.2
2016-Aug-18 07:23N 35°54' E 014°31'5 6.4
2016-Aug-18 06:33N 35°55' E 014°38'6 6.0
2016-Aug-18 05:33N 35°55' E 014°45'2 0.5
2016-Aug-18 01:26N 35°55' E 014°48'0 0.0
2016-Aug-18 00:32N 35°55' E 014°48'5 4.2
2016-Aug-17 23:28N 35°52' E 014°43'6 6.7
2016-Aug-17 22:33N 35°49' E 014°36'1 1.1
2016-Aug-17 21:33N 35°49' E 014°35'0 0.0
2016-Aug-17 20:30N 35°49' E 014°35'0 0.0
2016-Aug-17 19:33N 35°49' E 014°35'0 0.0
2016-Aug-17 18:30N 35°49' E 014°35'0 0.0
2016-Aug-17 17:30N 35°49' E 014°35'0 0.0
2016-Aug-17 16:33N 35°49' E 014°35'0 0.0
2016-Aug-17 15:30N 35°49' E 014°35'0 0.0
2016-Aug-17 14:15N 35°49' E 014°35'0 0.0
2016-Aug-17 13:27N 35°49' E 014°35'0 0.0
2016-Aug-17 12:33N 35°49' E 014°35'0 0.0
2016-Aug-17 11:15N 35°49' E 014°35'0 0.1
2016-Aug-17 10:33N 35°49' E 014°35'0 0.0
2016-Aug-17 09:33N 35°49' E 014°35'0 0.0
2016-Aug-17 08:33N 35°49' E 014°35'0 0.1
2016-Aug-17 07:33N 35°49' E 014°35'1 0.6
2016-Aug-17 06:31N 35°49' E 014°36'0 0.0
2016-Aug-17 04:25N 35°49' E 014°36'0 0.0
2016-Aug-17 03:31N 35°49' E 014°36'0 0.0
2016-Aug-17 02:31N 35°49' E 014°36'0 0.0
2016-Aug-17 01:31N 35°49' E 014°36'0 0.0
2016-Aug-17 00:31N 35°49' E 014°36'0 0.0
2016-Aug-16 23:31N 35°49' E 014°36'1 0.5
2016-Aug-16 22:32N 35°50' E 014°36'0 0.1
2016-Aug-16 21:32N 35°50' E 014°36'0 0.0
2016-Aug-16 19:29N 35°50' E 014°36'0 0.0
2016-Aug-16 18:32N 35°50' E 014°36'0 0.0
2016-Aug-16 16:29N 35°50' E 014°36'1 0.8
2016-Aug-16 15:32N 35°49' E 014°35'0 0.0
2016-Aug-16 14:33N 35°49' E 014°35'0 0.0
2016-Aug-16 13:33N 35°49' E 014°35'0 0.0
2016-Aug-16 12:32N 35°49' E 014°35'0 0.0
2016-Aug-16 11:33N 35°49' E 014°35'0 0.0
2016-Aug-16 10:33N 35°49' E 014°35'0 0.0
2016-Aug-16 09:30N 35°49' E 014°35'0 0.0
2016-Aug-16 08:27N 35°49' E 014°35'0 0.0
2016-Aug-16 07:23N 35°49' E 014°35'0 0.0
2016-Aug-16 04:29N 35°49' E 014°35'0 0.0
2016-Aug-16 01:09N 35°49' E 014°35'0 0.0
2016-Aug-16 00:27N 35°49' E 014°35'0 0.0
2016-Aug-15 23:33N 35°49' E 014°35'0 0.0
2016-Aug-15 22:30N 35°49' E 014°35'0 0.0
2016-Aug-15 21:33N 35°49' E 014°35'0 0.0
2016-Aug-15 20:30N 35°49' E 014°35'0 0.1
2016-Aug-15 19:32N 35°49' E 014°35'0 0.0
2016-Aug-15 17:29N 35°49' E 014°35'0 0.0
2016-Aug-15 16:21N 35°49' E 014°35'0 0.1
2016-Aug-15 15:33N 35°49' E 014°35'0 0.0
2016-Aug-15 14:32N 35°49' E 014°35'0 0.0
2016-Aug-15 13:32N 35°49' E 014°35'  

Dump ship's entire track history